createdAt,value
2023-12-02T06:03:44.722Z,98491.97
2023-12-02T06:04:47.073Z,98495.41
2023-12-02T06:05:49.206Z,98494.53
2023-12-02T06:06:51.376Z,98488.50
2023-12-02T06:07:53.419Z,98500.56
2023-12-02T06:08:55.852Z,98487.63
2023-12-02T06:09:57.844Z,98489.31
2023-12-02T06:11:02.443Z,98483.28
2023-12-02T06:12:04.713Z,98491.91
2023-12-02T06:13:06.967Z,98489.31
2023-12-02T06:14:09.077Z,98491.03
2023-12-02T06:15:13.045Z,98476.34
2023-12-02T06:16:15.296Z,98484.09
2023-12-02T06:17:17.446Z,98475.44
2023-12-02T06:18:19.960Z,98476.31
2023-12-02T06:19:22.375Z,98477.16
2023-12-02T06:20:27.866Z,98479.75
2023-12-02T06:21:30.060Z,98475.41
2023-12-02T06:22:33.070Z,98477.13
2023-12-02T06:23:35.331Z,98478.00
2023-12-02T06:24:38.165Z,98477.13
2023-12-02T06:25:40.412Z,98460.72
2023-12-02T06:26:42.469Z,98472.78
2023-12-02T06:27:44.675Z,98472.78
2023-12-02T06:28:50.952Z,98477.09
2023-12-02T06:29:53.132Z,98477.97
2023-12-02T06:30:55.163Z,98481.44
2023-12-02T06:31:57.356Z,98477.97
2023-12-02T06:32:59.414Z,98483.13
2023-12-02T06:34:01.541Z,98478.81
2023-12-02T06:35:03.645Z,98481.38
2023-12-02T06:36:07.057Z,98477.03
2023-12-02T06:37:09.064Z,98477.03
2023-12-02T06:38:12.240Z,98471.00
2023-12-02T06:39:14.498Z,98476.16
2023-12-02T06:40:16.861Z,98471.84
2023-12-02T06:41:18.824Z,98470.09
2023-12-02T06:42:21.655Z,98470.09
2023-12-02T06:43:23.818Z,98463.16
2023-12-02T06:44:27.370Z,98470.06
2023-12-02T06:45:29.612Z,98468.31
2023-12-02T06:46:32.003Z,98462.25
2023-12-02T06:47:34.183Z,98468.31
2023-12-02T06:48:36.615Z,98471.75
2023-12-02T06:49:38.673Z,98458.81
2023-12-02T06:50:40.820Z,98468.28
2023-12-02T06:51:42.970Z,98473.50
2023-12-02T06:52:45.327Z,98465.69
2023-12-02T06:53:48.116Z,98455.28
2023-12-02T06:55:55.159Z,98460.47
2023-12-02T06:56:57.243Z,98465.63
2023-12-02T06:58:00.577Z,98463.03
2023-12-02T06:59:02.955Z,98468.19
2023-12-02T07:00:07.424Z,98470.78
2023-12-02T07:01:09.943Z,98464.72
2023-12-02T07:02:12.661Z,98470.75
2023-12-02T07:03:14.768Z,98478.53
2023-12-02T07:04:16.965Z,98466.41
2023-12-02T07:05:19.173Z,98464.69
2023-12-02T07:06:22.342Z,98469.00
2023-12-02T07:07:24.488Z,98469.00
2023-12-02T07:08:26.901Z,98463.84
2023-12-02T07:09:29.055Z,98460.34
2023-12-02T07:10:31.283Z,98465.50
2023-12-02T07:11:33.398Z,98455.13
2023-12-02T07:12:35.607Z,98463.75
2023-12-02T07:13:37.783Z,98465.47
2023-12-02T07:14:39.836Z,98461.97
2023-12-02T07:15:42.322Z,98461.97
2023-12-02T07:16:44.451Z,98461.97
2023-12-02T07:17:46.662Z,98454.16
2023-12-02T07:18:48.833Z,98461.94
2023-12-02T07:19:51.214Z,98457.59
2023-12-02T07:20:53.256Z,98459.34
2023-12-02T07:21:55.380Z,98458.44
2023-12-02T07:22:57.652Z,98462.78
2023-12-02T07:23:59.877Z,98448.06
2023-12-02T07:25:01.913Z,98452.41
2023-12-02T07:26:04.190Z,98454.16
2023-12-02T07:27:06.463Z,98448.97
2023-12-02T07:28:08.796Z,98454.19
2023-12-02T07:29:11.097Z,98455.94
2023-12-02T07:31:18.465Z,98446.44
2023-12-02T07:32:20.797Z,98459.41
2023-12-02T07:33:24.352Z,98455.94
2023-12-02T07:34:26.686Z,98456.78
2023-12-02T07:35:28.717Z,98460.19
2023-12-02T07:36:30.792Z,98454.13
2023-12-02T07:37:33.126Z,98456.72
2023-12-02T07:38:35.267Z,98452.34
2023-12-02T07:39:37.577Z,98455.81
2023-12-02T07:40:40.050Z,98457.50
2023-12-02T07:41:43.865Z,98460.94
2023-12-02T07:42:46.239Z,98452.22
2023-12-02T07:43:48.336Z,98456.53
2023-12-02T07:44:50.688Z,98458.28
2023-12-02T07:45:53.055Z,98455.66
2023-12-02T07:46:55.121Z,98450.47
2023-12-02T07:47:57.443Z,98457.38
2023-12-02T07:48:59.646Z,98454.78
2023-12-02T07:50:01.747Z,98457.41
2023-12-02T07:51:07.642Z,98459.16
2023-12-02T07:52:09.791Z,98450.53
2023-12-02T07:53:12.021Z,98454.81
2023-12-02T07:54:14.065Z,98460.00
2023-12-02T07:55:16.581Z,98466.03
2023-12-02T07:56:18.808Z,98455.59
2023-12-02T07:57:20.918Z,98458.16
2023-12-02T07:58:22.977Z,98466.81
2023-12-02T07:59:25.068Z,98462.47
2023-12-02T08:00:27.611Z,98461.59
2023-12-02T08:01:29.736Z,98465.91
2023-12-02T08:02:31.970Z,98464.16
2023-12-02T08:03:34.704Z,98469.31
2023-12-02T08:04:36.774Z,98464.94
2023-12-02T08:06:43.746Z,98472.75
2023-12-02T08:07:47.526Z,98469.25
2023-12-02T08:08:50.349Z,98468.38
2023-12-02T08:09:53.381Z,98468.38
2023-12-02T08:10:56.950Z,98459.69
2023-12-02T08:11:59.308Z,98470.03
2023-12-02T08:13:01.287Z,98472.63
2023-12-02T08:14:03.427Z,98471.75
2023-12-02T08:15:07.219Z,98468.25
2023-12-02T08:16:10.369Z,98464.84
2023-12-02T08:17:12.484Z,98464.78
2023-12-02T08:18:14.722Z,98473.41
2023-12-02T08:19:18.023Z,98471.63
2023-12-02T08:20:20.320Z,98470.78
2023-12-02T08:21:22.455Z,98475.09
2023-12-02T08:22:56.629Z,98475.97
2023-12-02T08:24:07.449Z,98472.53
2023-12-02T08:25:09.781Z,98475.09
2023-12-02T08:28:59.344Z,98475.91
2023-12-02T08:30:01.837Z,98471.56
2023-12-02T08:31:29.305Z,98481.03
2023-12-02T08:35:37.927Z,98473.19
2023-12-02T08:41:13.612Z,98491.53
2023-12-02T08:43:46.618Z,98485.44
2023-12-02T08:45:05.879Z,98482.84
2023-12-02T08:47:38.282Z,98488.03
2023-12-02T08:48:40.591Z,98489.81
2023-12-02T08:49:42.718Z,98488.97
2023-12-02T08:52:09.838Z,98494.94
2023-12-02T08:54:38.010Z,98494.94
2023-12-02T08:55:40.278Z,98496.66
2023-12-02T08:59:30.299Z,98504.53
2023-12-02T09:00:33.165Z,98498.50
2023-12-02T09:01:35.556Z,98499.34
2023-12-02T09:02:37.857Z,98507.13
2023-12-02T09:03:40.050Z,98505.44
2023-12-02T09:04:42.263Z,98509.81
2023-12-02T09:05:44.902Z,98511.50
2023-12-02T09:06:47.175Z,98512.31
2023-12-02T09:07:49.741Z,98514.13
2023-12-02T09:08:55.106Z,98513.25
2023-12-02T09:09:57.371Z,98514.09
2023-12-02T09:10:59.747Z,98519.25
2023-12-02T09:12:01.907Z,98508.88
2023-12-02T09:13:25.436Z,98511.47
2023-12-02T09:14:27.973Z,98511.44
2023-12-02T09:15:41.290Z,98519.25
2023-12-02T09:16:48.320Z,98512.28
2023-12-02T09:18:11.626Z,98518.34
2023-12-02T09:19:28.989Z,98525.25
2023-12-02T09:20:40.524Z,98529.63
2023-12-02T09:21:46.106Z,98525.38
2023-12-02T09:22:48.946Z,98530.63
2023-12-02T09:23:52.393Z,98527.19
2023-12-02T09:24:54.622Z,98531.50
2023-12-02T09:26:23.052Z,98536.72
2023-12-02T09:27:54.349Z,98533.19
2023-12-02T09:28:57.147Z,98536.66
2023-12-02T09:29:59.197Z,98536.63
2023-12-02T09:31:10.824Z,98544.41
2023-12-02T09:32:26.608Z,98545.28
2023-12-02T09:33:29.638Z,98549.59
2023-12-02T09:34:59.937Z,98552.22
2023-12-02T09:36:03.861Z,98547.00
2023-12-02T09:37:05.871Z,98551.38
2023-12-02T09:38:08.218Z,98550.53
2023-12-02T09:39:11.361Z,98556.56
2023-12-02T09:40:22.639Z,98560.91
2023-12-02T09:41:32.972Z,98559.13
2023-12-02T09:42:36.016Z,98551.34
2023-12-02T09:43:46.922Z,98558.25
2023-12-02T09:45:00.385Z,98551.31
2023-12-02T09:46:31.068Z,98557.34
2023-12-02T09:47:41.661Z,98554.75
2023-12-02T09:49:14.710Z,98550.44
2023-12-02T09:50:24.463Z,98559.06
2023-12-02T09:52:03.779Z,98562.50
2023-12-02T09:53:22.905Z,98558.22
2023-12-02T09:54:48.048Z,98560.78
2023-12-02T09:55:55.419Z,98559.91
2023-12-02T09:57:06.669Z,98570.31
2023-12-02T09:58:25.808Z,98569.44
2023-12-02T09:59:28.173Z,98561.69
2023-12-02T10:00:58.138Z,98574.72
2023-12-02T10:02:11.625Z,98567.81
2023-12-02T10:04:06.136Z,98571.28
2023-12-02T10:05:13.622Z,98568.72
2023-12-02T10:06:34.030Z,98573.91
2023-12-02T10:08:04.930Z,98573.06
2023-12-02T10:09:31.557Z,98574.78
2023-12-02T10:10:55.003Z,98575.63
2023-12-02T10:12:31.917Z,98571.38
2023-12-02T10:13:54.898Z,98574.81
2023-12-02T10:15:02.926Z,98580.88
2023-12-02T10:16:14.085Z,98578.31
2023-12-02T10:17:18.166Z,98578.31
2023-12-02T10:18:24.227Z,98583.56
2023-12-02T10:19:52.220Z,98580.94
2023-12-02T10:21:00.886Z,98580.94
2023-12-02T10:22:05.159Z,98587.00
2023-12-02T10:23:30.141Z,98581.81
2023-12-02T10:24:53.957Z,98592.13
2023-12-02T10:26:04.949Z,98587.81
2023-12-02T10:27:13.125Z,98583.50
2023-12-02T10:28:25.717Z,98589.56
2023-12-02T10:29:38.039Z,98590.41
2023-12-02T10:30:47.446Z,98595.59
2023-12-02T10:32:20.858Z,98598.19
2023-12-02T10:33:27.565Z,98598.19
2023-12-02T10:34:43.772Z,98598.25
2023-12-02T10:35:48.922Z,98607.75
2023-12-02T10:36:55.104Z,98612.09
2023-12-02T10:38:15.293Z,98607.78
2023-12-02T10:39:30.369Z,98616.41
2023-12-02T10:40:33.794Z,98614.66
2023-12-02T10:41:42.312Z,98612.09
2023-12-02T10:42:59.189Z,98615.56
2023-12-02T10:44:05.602Z,98619.06
2023-12-02T10:45:10.100Z,98619.88
2023-12-02T10:46:13.080Z,98618.13
2023-12-02T10:47:17.416Z,98628.56
2023-12-02T10:48:23.335Z,98621.69
2023-12-02T10:49:26.287Z,98619.94
2023-12-02T10:50:29.779Z,98620.78
2023-12-02T10:51:35.011Z,98628.56
2023-12-02T10:52:40.832Z,98627.72
2023-12-02T10:53:44.787Z,98632.91
2023-12-02T10:54:50.990Z,98638.94
2023-12-02T10:56:00.629Z,98637.19
2023-12-02T10:57:08.176Z,98642.38
2023-12-02T10:58:10.707Z,98631.19
2023-12-02T10:59:13.696Z,98644.13
2023-12-02T11:00:47.788Z,98645.00
2023-12-02T11:02:02.091Z,98648.41
2023-12-02T11:03:23.289Z,98655.34
2023-12-02T11:06:09.748Z,98657.94
2023-12-02T11:07:16.029Z,98651.03
2023-12-02T11:08:29.877Z,98664.88
2023-12-02T11:09:49.173Z,98663.19
2023-12-02T11:11:00.064Z,98661.47
2023-12-02T11:12:11.278Z,98675.31
2023-12-02T11:13:16.682Z,98677.06
2023-12-02T11:14:19.575Z,98689.16
2023-12-02T11:15:25.641Z,98682.25
2023-12-02T11:16:39.808Z,98690.88
2023-12-02T11:18:04.576Z,98692.63
2023-12-02T11:19:29.056Z,98692.63
2023-12-02T11:21:02.882Z,98690.03
2023-12-02T11:22:05.154Z,98688.31
2023-12-02T11:23:31.309Z,98688.28
2023-12-02T11:25:10.691Z,98690.06
2023-12-02T11:26:21.586Z,98703.03
2023-12-02T11:27:54.704Z,98703.03
2023-12-02T11:29:18.321Z,98705.63
2023-12-02T11:30:43.251Z,98711.72
2023-12-02T11:32:04.281Z,98708.25
2023-12-02T11:33:32.218Z,98708.25
2023-12-02T11:35:01.473Z,98705.66
2023-12-02T11:36:03.682Z,98716.91
2023-12-02T11:37:24.281Z,98719.53
2023-12-02T11:38:32.306Z,98723.88
2023-12-02T11:39:46.509Z,98719.53
2023-12-02T11:41:06.680Z,98731.69
2023-12-02T11:42:19.014Z,98723.06
2023-12-02T11:43:27.603Z,98730.84
2023-12-02T11:44:35.669Z,98726.47
2023-12-02T11:45:44.510Z,98732.56
2023-12-02T11:47:00.210Z,98741.22
2023-12-02T11:48:14.586Z,98744.66
2023-12-02T11:49:38.019Z,98736.91
2023-12-02T11:50:52.250Z,98747.28
2023-12-02T11:52:22.913Z,98749.00
2023-12-02T11:54:11.024Z,98750.75
2023-12-02T11:55:18.110Z,98760.25
2023-12-02T11:56:25.258Z,98757.69
2023-12-02T11:57:38.259Z,98749.06
2023-12-02T11:59:15.987Z,98756.81
2023-12-02T12:00:34.089Z,98764.59
2023-12-02T12:02:01.052Z,98752.53
2023-12-02T12:03:47.953Z,98768.94
2023-12-02T12:05:01.903Z,98771.50
2023-12-02T12:08:06.153Z,98773.28
2023-12-02T12:11:55.646Z,98785.38
2023-12-02T12:13:01.385Z,98779.34
2023-12-02T12:15:34.633Z,98788.84
2023-12-02T12:21:07.852Z,98807.84
2023-12-02T12:24:57.532Z,98810.47
2023-12-02T12:27:24.900Z,98817.38
2023-12-02T12:30:12.212Z,98832.06
2023-12-02T12:31:46.617Z,98835.50
2023-12-02T12:36:22.992Z,98850.19
2023-12-02T12:37:50.329Z,98848.47
2023-12-02T12:41:49.292Z,98861.41
2023-12-02T12:42:51.677Z,98858.84
2023-12-02T12:48:36.427Z,98863.16
2023-12-02T12:50:17.376Z,98870.06
2023-12-02T12:51:45.253Z,98871.78
2023-12-02T12:55:54.789Z,98877.78
2023-12-02T13:02:42.932Z,98886.41
2023-12-02T13:03:52.398Z,98885.53
2023-12-02T13:05:22.969Z,98892.47
2023-12-02T13:06:48.507Z,98898.47
2023-12-02T13:08:09.705Z,98895.03
2023-12-02T13:09:13.504Z,98903.63
2023-12-02T13:10:16.627Z,98902.78
2023-12-02T13:11:28.369Z,98905.38
2023-12-02T13:12:35.721Z,98914.84
2023-12-02T13:13:41.553Z,98919.16
2023-12-02T13:14:49.481Z,98913.13
2023-12-02T13:15:53.872Z,98926.03
2023-12-02T13:16:57.217Z,98928.63
2023-12-02T13:18:00.840Z,98926.91
2023-12-02T13:19:03.664Z,98927.75
2023-12-02T13:20:06.577Z,98934.66
2023-12-02T13:21:09.248Z,98938.13
2023-12-02T13:22:14.618Z,98933.78
2023-12-02T13:23:22.114Z,98940.66
2023-12-02T13:24:25.446Z,98943.28
2023-12-02T13:25:30.859Z,98943.25
2023-12-02T13:26:35.290Z,98952.75
2023-12-02T13:27:40.776Z,98959.63
2023-12-02T13:28:44.372Z,98956.16
2023-12-02T13:29:50.834Z,98959.63
2023-12-02T13:30:55.792Z,98957.03
2023-12-02T13:31:58.434Z,98968.22
2023-12-02T13:33:21.908Z,98975.16
2023-12-02T13:34:37.122Z,98970.81
2023-12-02T13:35:43.745Z,98973.41
2023-12-02T13:36:51.515Z,98971.69
2023-12-02T13:38:14.082Z,98975.97
2023-12-02T13:39:19.407Z,98975.94
2023-12-02T13:40:28.132Z,98983.69
2023-12-02T13:41:47.731Z,98985.41
2023-12-02T13:42:51.427Z,98980.22
2023-12-02T13:43:54.773Z,98987.97
2023-12-02T13:45:10.212Z,98986.22
2023-12-02T13:46:16.748Z,98992.28
2023-12-02T13:47:29.917Z,98989.66
2023-12-02T13:49:09.195Z,98995.72
2023-12-02T13:50:14.363Z,99001.75
2023-12-02T13:51:29.547Z,99003.47
2023-12-02T13:53:00.709Z,99011.22
2023-12-02T13:54:08.959Z,99013.81
2023-12-02T13:55:48.146Z,99011.22
2023-12-02T13:56:59.298Z,99025.00
2023-12-02T13:58:13.555Z,99027.63
2023-12-02T13:59:28.838Z,99031.06
2023-12-02T14:00:40.492Z,99026.81
2023-12-02T14:02:06.045Z,99042.34
2023-12-02T14:03:43.759Z,99042.41
2023-12-02T14:05:07.769Z,99046.75
2023-12-02T14:07:48.690Z,99051.94
2023-12-02T14:09:00.750Z,99047.66
2023-12-02T14:10:07.473Z,99053.69
2023-12-02T14:11:26.979Z,99053.69
2023-12-02T14:29:21.947Z,99091.66
2023-12-02T14:34:02.424Z,99110.66
2023-12-02T14:35:17.081Z,99114.97
2023-12-02T14:36:39.571Z,99114.97
2023-12-02T14:38:13.926Z,99125.34
2023-12-02T14:39:55.998Z,99127.06
2023-12-02T14:41:35.698Z,99132.22
2023-12-02T14:42:58.940Z,99139.13
2023-12-02T14:44:00.882Z,99136.53
2023-12-02T14:45:03.405Z,99147.72
2023-12-02T14:46:06.908Z,99139.97
2023-12-02T14:47:12.661Z,99152.03
2023-12-02T14:48:17.563Z,99142.56
2023-12-02T14:49:20.840Z,99145.94
2023-12-02T14:50:25.892Z,99147.72
2023-12-02T14:51:35.600Z,99153.75
2023-12-02T14:52:44.332Z,99157.19
2023-12-02T14:53:46.650Z,99151.19
2023-12-02T14:54:49.020Z,99150.28
2023-12-02T14:55:51.117Z,99152.88
2023-12-02T14:56:53.415Z,99160.63
2023-12-02T14:58:22.141Z,99164.94
2023-12-02T14:59:25.063Z,99160.66
2023-12-02T15:00:27.770Z,99158.88
2023-12-02T15:01:38.640Z,99171.03
2023-12-02T15:02:51.749Z,99168.47
2023-12-02T15:03:55.060Z,99166.69
2023-12-02T15:04:57.482Z,99168.41
2023-12-02T15:06:01.480Z,99175.31
2023-12-02T15:07:05.257Z,99171.84
2023-12-02T15:08:13.872Z,99171.84
2023-12-02T15:09:28.575Z,99176.19
2023-12-02T15:10:37.630Z,99183.97
2023-12-02T15:11:44.408Z,99187.34
2023-12-02T15:12:49.310Z,99185.59
2023-12-02T15:13:52.435Z,99193.38
2023-12-02T15:14:56.814Z,99193.38
2023-12-02T15:15:59.783Z,99203.75
2023-12-02T15:17:05.322Z,99208.94
2023-12-02T15:18:09.640Z,99209.84
2023-12-02T15:19:13.051Z,99210.72
2023-12-02T15:20:16.397Z,99215.91
2023-12-02T15:21:21.337Z,99211.59
2023-12-02T15:22:23.455Z,99216.78
2023-12-02T15:23:34.865Z,99218.47
2023-12-02T15:24:37.647Z,99221.97
2023-12-02T15:25:40.312Z,99220.22
2023-12-02T15:26:43.266Z,99229.72
2023-12-02T15:27:45.310Z,99227.13
2023-12-02T15:28:51.604Z,99228.88
2023-12-02T15:29:53.973Z,99232.31
2023-12-02T15:30:58.767Z,99238.38
2023-12-02T15:32:02.866Z,99232.31
2023-12-02T15:33:04.889Z,99234.91
2023-12-02T15:34:07.522Z,99228.84
2023-12-02T15:35:11.631Z,99231.44
2023-12-02T15:36:14.981Z,99236.66
2023-12-02T15:37:17.738Z,99238.38
2023-12-02T15:38:20.850Z,99237.53
2023-12-02T15:39:23.787Z,99246.19
2023-12-02T15:40:25.974Z,99246.97
2023-12-02T15:41:28.406Z,99240.13
2023-12-02T15:42:30.823Z,99243.56
2023-12-02T15:43:33.173Z,99240.13
2023-12-02T15:44:45.300Z,99253.06
2023-12-02T15:45:47.457Z,99252.19
2023-12-02T15:46:51.083Z,99253.09
2023-12-02T15:47:53.366Z,99253.94
2023-12-02T15:48:56.587Z,99260.03
2023-12-02T15:49:59.074Z,99266.91
2023-12-02T15:51:01.364Z,99266.91
2023-12-02T15:52:06.396Z,99266.03
2023-12-02T15:53:09.080Z,99265.16
2023-12-02T15:54:16.579Z,99266.03
2023-12-02T15:55:22.173Z,99270.31
2023-12-02T15:56:25.859Z,99272.91
2023-12-02T15:57:28.054Z,99272.91
2023-12-02T15:58:32.418Z,99274.66
2023-12-02T15:59:34.971Z,99278.09
2023-12-02T16:00:38.319Z,99275.50
2023-12-02T16:01:48.187Z,99272.91
2023-12-02T16:02:50.324Z,99276.38
2023-12-02T16:03:54.060Z,99279.00
2023-12-02T16:04:56.137Z,99281.59
2023-12-02T16:05:58.817Z,99285.84
2023-12-02T16:07:01.413Z,99287.56
2023-12-02T16:08:08.245Z,99285.84
2023-12-02T16:09:10.443Z,99291.03
2023-12-02T16:10:13.667Z,99297.13
2023-12-02T16:11:16.249Z,99305.75
2023-12-02T16:12:19.629Z,99310.94
2023-12-02T16:13:23.276Z,99299.72
2023-12-02T16:14:25.647Z,99312.63
2023-12-02T16:15:32.026Z,99305.69
2023-12-02T16:16:36.493Z,99311.75
2023-12-02T16:17:39.734Z,99312.66
2023-12-02T16:18:44.464Z,99316.91
2023-12-02T16:19:48.848Z,99320.34
2023-12-02T16:20:51.446Z,99322.91
2023-12-02T16:21:55.180Z,99330.69
2023-12-02T16:22:58.326Z,99329.78
2023-12-02T16:24:01.351Z,99338.41
2023-12-02T16:25:05.139Z,99332.38
2023-12-02T16:26:08.888Z,99334.94
2023-12-02T16:27:11.084Z,99341.88
2023-12-02T16:28:13.143Z,99345.34
2023-12-02T16:29:16.421Z,99336.75
2023-12-02T16:30:23.074Z,99343.63
2023-12-02T16:31:28.962Z,99332.31
2023-12-02T16:32:32.131Z,99342.75
2023-12-02T16:33:36.839Z,99340.13
2023-12-02T16:34:42.449Z,99341.78
2023-12-02T16:35:44.671Z,99346.91
2023-12-02T16:36:49.803Z,99340.91
2023-12-02T16:37:53.375Z,99330.53
2023-12-02T16:38:55.846Z,99338.28
2023-12-02T16:39:58.767Z,99339.16
2023-12-02T16:41:00.865Z,99334.81
2023-12-02T16:42:03.062Z,99347.75
2023-12-02T16:43:05.212Z,99343.41
2023-12-02T16:44:08.656Z,99343.38
2023-12-02T16:45:19.409Z,99343.38
2023-12-02T16:46:22.369Z,99351.13
2023-12-02T16:47:56.689Z,99358.94
2023-12-02T16:48:58.885Z,99369.31
2023-12-02T16:50:01.439Z,99369.25
2023-12-02T16:51:07.632Z,99369.28
2023-12-02T16:52:15.143Z,99366.66
2023-12-02T16:53:24.766Z,99371.81
2023-12-02T16:54:33.287Z,99376.09
2023-12-02T16:55:36.970Z,99376.16
2023-12-02T16:56:39.251Z,99364.00
2023-12-02T16:57:51.108Z,99379.59
2023-12-02T16:58:53.103Z,99378.72
2023-12-02T16:59:58.749Z,99377.00
2023-12-02T17:01:03.389Z,99379.63
2023-12-02T17:02:05.573Z,99385.69
2023-12-02T17:03:09.099Z,99394.31
2023-12-02T17:04:11.546Z,99390.88
2023-12-02T17:05:28.869Z,99402.06
2023-12-02T17:06:32.131Z,99395.97
2023-12-02T17:07:34.217Z,99397.66
2023-12-02T17:08:42.591Z,99406.38
2023-12-02T17:09:46.078Z,99401.19
2023-12-02T17:10:59.772Z,99405.50
2023-12-02T17:12:02.101Z,99403.03
2023-12-02T17:13:04.321Z,99404.72
2023-12-02T17:14:11.703Z,99414.22
2023-12-02T17:15:27.934Z,99407.25
2023-12-02T17:16:35.624Z,99412.44
2023-12-02T17:17:38.134Z,99412.44
2023-12-02T17:18:40.277Z,99421.06
2023-12-02T17:19:43.739Z,99415.00
2023-12-02T17:20:45.788Z,99414.06
2023-12-02T17:21:56.212Z,99422.72
2023-12-02T17:22:58.215Z,99421.00
2023-12-02T17:24:01.908Z,99422.72
2023-12-02T17:25:21.575Z,99428.75
2023-12-02T17:26:29.442Z,99427.91
2023-12-02T17:27:40.805Z,99425.25
2023-12-02T17:28:43.397Z,99430.41
2023-12-02T17:29:45.404Z,99427.00
2023-12-02T17:30:47.457Z,99433.03
2023-12-02T17:31:49.837Z,99427.78
2023-12-02T17:32:52.097Z,99435.53
2023-12-02T17:33:54.174Z,99443.25
2023-12-02T17:34:58.959Z,99431.19
2023-12-02T17:36:01.848Z,99454.38
2023-12-02T17:37:04.361Z,99450.06
2023-12-02T17:38:06.437Z,99453.56
2023-12-02T17:39:08.692Z,99459.59
2023-12-02T17:40:11.332Z,99456.19
2023-12-02T17:41:13.604Z,99465.66
2023-12-02T17:42:16.416Z,99457.84
2023-12-02T17:43:18.698Z,99463.91
2023-12-02T17:44:21.236Z,99471.72
2023-12-02T17:45:23.446Z,99472.53
2023-12-02T17:46:28.232Z,99475.13
2023-12-02T17:47:30.560Z,99477.72
2023-12-02T17:48:32.718Z,99481.16
2023-12-02T17:49:34.980Z,99483.78
2023-12-02T17:50:37.082Z,99486.34
2023-12-02T17:51:43.097Z,99499.34
2023-12-02T17:52:45.743Z,99499.31
2023-12-02T17:53:48.126Z,99491.59
2023-12-02T17:54:50.390Z,99503.72
2023-12-02T17:55:52.471Z,99507.97
2023-12-02T17:56:54.646Z,99511.47
2023-12-02T17:57:56.773Z,99508.03
2023-12-02T17:58:58.963Z,99510.56
2023-12-02T18:00:01.316Z,99514.09
2023-12-02T18:01:03.426Z,99515.78
2023-12-02T18:02:06.195Z,99516.66
2023-12-02T18:03:08.324Z,99523.53
2023-12-02T18:04:10.494Z,99513.97
2023-12-02T18:05:12.692Z,99520.00
2023-12-02T18:06:14.811Z,99518.34
2023-12-02T18:07:16.838Z,99524.31
2023-12-02T18:08:19.024Z,99526.94
2023-12-02T18:09:21.695Z,99531.25
2023-12-02T18:10:23.810Z,99535.59
2023-12-02T18:11:25.844Z,99535.53
2023-12-02T18:12:30.740Z,99533.81
2023-12-02T18:13:32.997Z,99545.78
2023-12-02T18:14:35.712Z,99541.44
2023-12-02T18:15:38.732Z,99541.38
2023-12-02T18:16:41.174Z,99544.78
2023-12-02T18:17:43.199Z,99549.13
2023-12-02T18:18:45.504Z,99549.09
2023-12-02T18:19:47.823Z,99545.66
2023-12-02T18:20:50.895Z,99548.19
2023-12-02T18:21:52.959Z,99545.69
2023-12-02T18:22:55.294Z,99537.84
2023-12-02T18:23:59.038Z,99547.28
2023-12-02T18:25:01.307Z,99547.28
2023-12-02T18:26:03.445Z,99543.81
2023-12-02T18:27:05.767Z,99552.44
2023-12-02T18:28:07.816Z,99551.53
2023-12-02T18:29:09.988Z,99553.19
2023-12-02T18:30:12.867Z,99560.03
2023-12-02T18:31:14.998Z,99551.44
2023-12-02T18:32:17.173Z,99561.72
2023-12-02T18:33:19.451Z,99564.31
2023-12-02T18:34:21.808Z,99567.75
2023-12-02T18:35:24.120Z,99573.00
2023-12-02T18:36:26.219Z,99571.25
2023-12-02T18:37:28.350Z,99570.44
2023-12-02T18:38:30.745Z,99577.34
2023-12-02T18:39:33.071Z,99573.88
2023-12-02T18:40:36.831Z,99576.47
2023-12-02T18:41:38.903Z,99573.88
2023-12-02T18:42:40.975Z,99571.19
2023-12-02T18:43:43.303Z,99569.38
2023-12-02T18:44:45.430Z,99573.69
2023-12-02T18:45:47.685Z,99575.41
2023-12-02T18:46:49.748Z,99584.84
2023-12-02T18:47:52.999Z,99571.00
2023-12-02T18:48:55.199Z,99578.69
2023-12-02T18:49:57.541Z,99586.50
2023-12-02T18:50:59.513Z,99588.19
2023-12-02T18:52:01.724Z,99589.09
2023-12-02T18:53:03.714Z,99594.25
2023-12-02T18:54:06.228Z,99600.34
2023-12-02T18:55:08.503Z,99589.25
2023-12-02T18:56:12.504Z,99600.41
2023-12-02T18:57:14.865Z,99602.22
2023-12-02T18:58:17.152Z,99603.09
2023-12-02T18:59:19.256Z,99610.84
2023-12-02T19:00:21.463Z,99611.66
2023-12-02T19:01:23.902Z,99614.34
2023-12-02T19:02:25.911Z,99616.06
2023-12-02T19:03:28.152Z,99623.81
2023-12-02T19:04:30.404Z,99624.69
2023-12-02T19:05:32.599Z,99614.31
2023-12-02T19:06:34.648Z,99622.00
2023-12-02T19:07:37.114Z,99631.47
2023-12-02T19:08:39.240Z,99630.63
2023-12-02T19:09:41.484Z,99639.22
2023-12-02T19:10:43.483Z,99633.19
2023-12-02T19:11:45.582Z,99641.00
2023-12-02T19:12:47.645Z,99647.91
2023-12-02T19:13:49.711Z,99652.97
2023-12-02T19:14:51.922Z,99649.41
2023-12-02T19:15:54.180Z,99652.88
2023-12-02T19:16:56.270Z,99659.81
2023-12-02T19:17:58.427Z,99655.38
2023-12-02T19:19:00.896Z,99663.22
2023-12-02T19:20:04.443Z,99664.06
2023-12-02T19:21:07.677Z,99657.97
2023-12-02T19:22:10.236Z,99663.16
2023-12-02T19:23:12.264Z,99662.34
2023-12-02T19:24:15.490Z,99666.69
2023-12-02T19:25:17.588Z,99665.78
2023-12-02T19:26:19.876Z,99675.38
2023-12-02T19:27:22.294Z,99676.19
2023-12-02T19:28:24.718Z,99673.50
2023-12-02T19:29:26.853Z,99684.69
2023-12-02T19:30:29.090Z,99687.16
2023-12-02T19:31:31.184Z,99688.00
2023-12-02T19:32:34.104Z,99693.19
2023-12-02T19:33:36.345Z,99684.56
2023-12-02T19:34:38.720Z,99696.50
2023-12-02T19:35:41.098Z,99702.66
2023-12-02T19:36:43.242Z,99695.69
2023-12-02T19:37:45.237Z,99700.88
2023-12-02T19:38:47.408Z,99711.16
2023-12-02T19:39:49.417Z,99709.44
2023-12-02T19:40:51.561Z,99711.19
2023-12-02T19:41:53.715Z,99715.41
2023-12-02T19:42:56.109Z,99723.09
2023-12-02T19:43:58.567Z,99722.28
2023-12-02T19:45:00.767Z,99726.53
2023-12-02T19:46:02.964Z,99730.84
2023-12-02T19:47:06.206Z,99736.88
2023-12-02T19:48:08.500Z,99733.44
2023-12-02T19:49:11.736Z,99733.44
2023-12-02T19:50:13.897Z,99738.66
2023-12-02T19:51:16.431Z,99742.91
2023-12-02T19:52:18.450Z,99732.63
2023-12-02T19:53:21.553Z,99739.41
2023-12-02T19:54:24.337Z,99742.09
2023-12-02T19:55:26.441Z,99736.94
2023-12-02T19:56:30.135Z,99749.84
2023-12-02T19:57:32.465Z,99745.38
2023-12-02T19:58:34.463Z,99748.75
2023-12-02T19:59:36.513Z,99743.47
2023-12-02T20:00:38.534Z,99745.09
2023-12-02T20:01:40.778Z,99758.09
2023-12-02T20:02:42.945Z,99755.44
2023-12-02T20:03:45.416Z,99776.16
2023-12-02T20:04:47.618Z,99770.16
2023-12-02T20:05:49.908Z,99777.19
2023-12-02T20:06:52.089Z,99765.06
2023-12-02T20:07:55.016Z,99777.09
2023-12-02T20:08:57.092Z,99784.84
2023-12-02T20:09:59.357Z,99785.53
2023-12-02T20:11:01.335Z,99779.41
2023-12-02T20:12:05.043Z,99787.09
2023-12-02T20:13:07.085Z,99781.19
2023-12-02T20:14:09.488Z,99780.16
2023-12-02T20:15:11.713Z,99788.78
2023-12-02T20:16:14.030Z,99791.34
2023-12-02T20:17:18.568Z,99803.34
2023-12-02T20:18:20.831Z,99805.13
2023-12-02T20:19:23.161Z,99804.19
2023-12-02T20:20:25.258Z,99802.38
2023-12-02T20:21:27.640Z,99806.63
2023-12-02T20:22:29.830Z,99811.09
2023-12-02T20:23:32.574Z,99817.09
2023-12-02T20:24:35.137Z,99819.75
2023-12-02T20:25:37.151Z,99825.91
2023-12-02T20:26:39.713Z,99824.94
2023-12-02T20:27:42.079Z,99829.13
2023-12-02T20:28:44.309Z,99831.66
2023-12-02T20:29:46.440Z,99822.25